Wild Boar Gully, Santa Catalina Island Weather observations

Data are for 10 minute period ending at time listed.
 Day   Time   Solar   Ave.   Ave.  Ave.  Vector    Max.   Stn.    Total
  of    of     Rad.   Air    Rel.  Wind   Wind     Wind   Baro.  Precip.
Year   Day            Temp.  Hum.  Speed  Dir.     Gust   Pres.         
2015   (PST)   W/m2    F      %     mph   deg.      mph    mb.     in.  
------------------------------------------------------------------------
 115    3:40    0.0    56   79.8     6    342.4     7.2    999.0   0.00  
 115    3:50    0.0    56   79.7     6    355.9     8.4    999.0   0.00  
 115    4:00    0.0    56   79.8     5     15.3     7.8    999.0   0.00  
 115    4:10    0.0    56   80.1     5     29.7     6.0    999.0   0.00  
 115    4:20    0.0    57   80.2     5     26.9     6.6    999.0   0.00  
 115    4:30    0.0    57   80.1     4     22.1     6.0    999.0   0.00  
 115    4:40    0.0    57   80.0     5     15.3     6.6    999.0   0.00  
 115    4:50    0.0    58   79.7     4     11.7     6.0    999.0   0.00  
 115    5:00    0.0    58   79.5     4      3.0     6.0    999.0   0.00  
 115    5:10    0.0    58   79.3     5    354.1     6.6    999.0   0.00  
 115    5:20    0.0    58   78.9     4     19.6     5.4    999.0   0.00  
 115    5:30    5.0    58   78.6     4     26.2     6.0    999.0   0.00  
 115    5:40   12.0    58   78.2     3     27.4     4.8    999.0   0.00  
 115    5:50   14.0    58   77.3     2      8.8     3.0    999.0   0.00  
 115    6:00   33.0    58   76.5     2    260.0     3.0    999.0   0.00  
 115    6:10   44.0    59   75.4     2    226.8     3.0    999.0   0.00  
 115    6:20   37.0    59   74.7     1    225.4     2.4    999.0   0.00  
 115    6:30   72.0    59   74.6     2    260.9     3.6    999.0   0.00  
 115    6:40  105.0    60   74.7     4    242.9     7.2    999.0   0.00  
 115    6:50   93.0    60   76.8     6    261.6     8.4    999.0   0.00  
 115    7:00  117.0    60   77.7     7    258.2     9.6    999.0   0.00  
 115    7:10  102.0    59   78.2     6    253.0     9.6    999.0   0.00  
 115    7:20  107.0    59   78.2     6    237.6     9.6    999.0   0.00  
 115    7:30  130.0    60   77.9     5    242.1    10.2    999.0   0.00  
 115    7:40  185.0    60   77.5     5    263.6     7.8    999.0   0.00  
 115    7:50  276.0    60   76.6     7    260.4    11.9    999.0   0.00  
 115    8:00  298.0    61   76.0     6    242.2    11.3    999.0   0.00  
 115    8:10  245.0    61   74.8     8    242.1    14.3    999.0   0.00  
 115    8:20  161.0    60   76.2     8    250.0    12.5    999.0   0.00  
 115    8:30  183.0    60   76.5     9    261.6    13.1    999.0   0.00  
 115    8:40  241.0    60   76.6     9    278.4    13.7    999.0   0.00  
 115    8:50  260.0    60   75.8     8    271.9    14.3    999.0   0.00  
 115    9:00  186.0    60   75.6     9    254.2    15.5    999.0   0.00  
 115    9:10  263.0    61   75.1     8    263.4    12.5    999.0   0.00  
 115    9:20  538.0    62   74.0     7    243.8    12.5    999.0   0.00  
 115    9:30  430.0    62   72.1    10    233.2    16.1    999.0   0.00  
 115    9:40  489.0    62   72.7     9    238.4    15.5    999.0   0.00  
 115    9:50  537.0    62   72.7     9    235.6    16.7    999.0   0.00  
 115   10:00  474.0    62   72.8    10    236.2    16.7    999.0   0.00  
 115   10:10  396.0    62   72.0     9    253.6    16.7    999.0   0.00  
 115   10:20  270.0    62   71.6    12    273.7    19.1    999.0   0.00  
 115   10:30  595.0    62   69.8    13    273.0    19.7    999.0   0.00  
 115   10:40  465.0    62   69.6    15    273.7    23.3    999.0   0.00  
 115   10:50  466.0    62   70.2    16    269.6    21.5    999.0   0.00  
 115   11:00  239.0    62   72.6    12    281.1    19.1    999.0   0.00  
 115   11:10  493.0    62   74.9    18    280.4    26.8    999.0   0.00  
 115   11:20  250.0    62   75.7    17    274.7    25.0    999.0   0.00  
 115   11:30  338.0    62   76.7    18    274.5    28.0    999.0   0.00  
 115   11:40  626.0    63   76.2    18    281.1    29.8    999.0   0.00  
 115   11:50  598.0    64   75.2    18    284.6    28.0    999.0   0.00  
 115   12:00  274.0    63   76.3    19    268.4    29.2    999.0   0.00  
 115   12:10  622.0    63   76.9    19    273.1    26.8    999.0   0.00  
 115   12:20  748.0    64   75.4    21    270.4    33.4    999.0   0.00  
 115   12:30  711.0    64   73.5    20    270.5    31.0    999.0   0.00  
 115   12:40  357.0    63   74.0    20    265.2    28.6    999.0   0.00  
 115   12:50  304.0    63   75.7    19    265.7    28.0    999.0   0.00  
 115   13:00  249.0    62   76.0    18    267.2    28.6    999.0   0.00  
 115   13:10  180.0    62   76.4    18    266.8    26.2    999.0   0.00  
 115   13:20  151.0    62   76.8    20    264.9    29.8    999.0   0.00  
 115   13:30  152.0    62   77.7    21    267.9    31.6    999.0   0.00  
 115   13:40  137.0    62   78.3    20    267.8    29.2    999.0   0.00  
 115   13:50  121.0    62   78.8    21    266.1    32.2    999.0   0.00  
 115   14:00  107.0    62   79.2    21    266.7    31.6    999.0   0.00  
 115   14:10  184.0    62   79.5    20    265.6    27.4    999.0   0.00  
 115   14:20  167.0    62   79.4    20    263.5    32.2    999.0   0.00  
 115   14:30  162.0    62   79.7    21    263.0    29.2    999.0   0.00  
 115   14:40  112.0    62   80.0    21    268.5    34.6    999.0   0.00  
 115   14:50   79.0    61   80.5    21    268.6    31.0    999.0   0.00  
 115   15:00   73.0    61   81.2    24    269.6    37.0    999.0   0.00  
 115   15:10   57.0    61   82.1    23    268.1    34.0    999.0   0.00  
 115   15:20  100.0    61   82.5    22    270.0    31.6    999.0   0.00  
 115   15:30  109.0    61   82.4    23    265.9    34.0    999.0   0.00  
 115   15:40  117.0    61   82.0    25    271.9    34.0    999.0   0.00  
 115   15:50  139.0    61   81.5    25    274.3    38.2    999.0   0.00  
 115   16:00  140.0    61   81.1    26    275.4    36.4    999.0   0.00  
 115   16:10  139.0    61   80.9    21    272.6    33.4    999.0   0.00  
 115   16:20  108.0    62   80.8    21    271.6    29.2    999.0   0.00  
 115   16:30  118.0    62   81.4    22    262.3    32.8    999.0   0.00  
 115   16:40  151.0    61   81.6    25    266.1    35.2    999.0   0.00  
 115   16:50  194.0    61   80.9    22    270.2    33.4    999.0   0.00  
 115   17:00  160.0    61   79.7    24    270.4    35.2    999.0   0.00  
 115   17:10  115.0    61   80.0    22    273.1    29.8    999.0   0.00  
 115   17:20  125.0    60   78.9    23    273.9    33.4    999.0   0.00  
 115   17:30   91.0    60   78.5    23    282.9    35.8    999.0   0.00  
 115   17:40   39.0    60   78.5    23    285.8    32.8    999.0   0.00  
 115   17:50   32.0    59   78.6    26    279.3    36.4    999.0   0.00  
 115   18:00   26.0    59   78.2    26    281.6    36.4    999.0   0.00  
 115   18:10   28.0    59   77.3    25    281.0    32.8    999.0   0.00  
 115   18:20   19.0    59   76.8    25    281.5    34.6    999.0   0.00  
 115   18:30   11.0    59   76.2    27    283.5    34.0    999.0   0.00  
 115   18:40    4.0    59   75.0    26    284.8    37.6    999.0   0.00  
 115   18:50    0.0    59   74.8    27    282.7    35.8    999.0   0.00  
 115   19:00    0.0    58   74.0    28    288.6    35.8    999.0   0.00  
 115   19:10    0.0    58   72.0    26    289.0    34.6    999.0   0.00  
 115   19:20    0.0    58   72.9    27    283.6    37.0    999.0   0.00  
 115   19:30    0.0    58   73.7    27    280.4    39.9    999.0   0.00  
 115   19:40    0.0    58   74.3    28    280.6    39.3    999.0   0.00  
 115   19:50    0.0    58   75.0    25    293.9    35.2    999.0   0.00  
 115   20:00    0.0    58   74.9    28    290.8    39.3    999.0   0.00  
 115   20:10    0.0    58   75.7    30    289.2    38.8    999.0   0.00  
 115   20:20    0.0    58   75.3    28    293.2    41.1    999.0   0.00  
 115   20:30    0.0    58   75.4    28    284.8    38.8    999.0   0.00  
 115   20:40    0.0    58   75.7    25    289.4    36.4    999.0   0.00  
 115   20:50    0.0    58   76.1    27    284.3    38.8    999.0   0.00  
 115   21:00    0.0    58   75.7    27    282.2    38.2    999.0   0.00  
 115   21:10    0.0    58   75.7    25    288.8    32.8    999.0   0.00  
 115   21:20    0.0    58   75.4    25    292.6    34.0    999.0   0.00  
 115   21:30    0.0    58   75.6    23    290.9    33.4    999.0   0.00  
 115   21:40    0.0    57   75.6    22    292.9    32.8    999.0   0.00  
 115   21:50    0.0    57   75.5    22    301.8    29.2    999.0   0.00  
 115   22:00    0.0    57   75.5    22    302.7    29.2    999.0   0.00  
 115   22:10    0.0    57   76.1    21    301.4    28.0    999.0   0.00  
 115   22:20    0.0    57   76.5    21    292.5    29.8    999.0   0.00  
 115   22:30    0.0    57   77.0    19    294.7    27.4    999.0   0.00  
 115   22:40    0.0    57   77.4    15    298.5    21.5    999.0   0.00  
 115   22:50    0.0    57   77.8    16    299.4    22.7    999.0   0.00  
 115   23:00    0.0    57   77.9    20    301.5    27.4    999.0   0.00  
 115   23:10    0.0    57   76.4    20    308.4    26.2    999.0   0.00  
 115   23:20    0.0    57   76.4    20    306.8    26.8    999.0   0.00  
 115   23:30    0.0    58   77.0    18    311.5    23.9    999.0   0.00  
 115   23:40    0.0    58   77.2    19    315.2    26.8    999.0   0.00  
 115   23:50    0.0    58   77.5    18    319.1    23.3    999.0   0.00  
 116    0:00    0.0    58   78.2    18    314.0    25.0    999.0   0.00  
 116    0:10    0.0    58   78.9    19    319.1    27.4    999.0   0.00  
 116    0:20    0.0    58   79.3    18    325.5    24.5    999.0   0.00  
 116    0:30    0.0    58   79.6    18    343.8    25.0    999.0   0.00  
 116    0:40    0.0    58   79.2    20    350.8    26.8    999.0   0.00  
 116    0:50    0.0    58   79.0    21    348.1    28.6    999.0   0.00  
 116    1:00    0.0    58   79.0    21    350.6    27.4    999.0   0.00  
 116    1:10    0.0    58   79.2    17    329.3    26.8    999.0   0.00  
 116    1:20    0.0    58   79.2    18    343.8    25.0    999.0   0.00  
 116    1:30    0.0    58   78.9    19    345.5    24.5    999.0   0.00  
 116    1:40    0.0    58   78.1    19      0.3    24.5    999.0   0.00  
 116    1:50    0.0    58   76.1    20    357.8    26.2    999.0   0.00  
 116    2:00    0.0    58   74.1    20      0.3    25.0    999.0   0.00  
 116    2:10    0.0    58   72.2    21    356.2    24.5    999.0   0.00  
 116    2:20    0.0    58   72.8    19    345.6    23.9    999.0   0.00  
 116    2:30    0.0    58   72.4    18    338.7    24.5    999.0   0.00  
 116    2:40    0.0    58   72.3    18    346.3    23.9    999.0   0.00  
 116    2:50    0.0    58   72.4    20    340.6    25.0    999.0   0.00  
 116    3:00    0.0    58   72.2    20    339.7    23.9    999.0   0.00  
 116    3:10    0.0    58   71.9    19    341.3    24.5    999.0   0.00  
 116    3:20    0.0    58   74.4    16    335.7    22.7    999.0   0.00  
 116    3:30    0.0    58   76.4    15    327.1    22.1    999.0   0.00  

Return to Wild Boar Gully graphs page.


Western Regional Climate Center,wrcc@dri.edu